Time;durP1;ratioP1;P1;durP2;ratioP2;P2;SDS_P1;SDS_P2;PMS_P1;PMS_P2;Temp;Humidity;BMP_temperature;BMP_pressure;BME280_temperature;BME280_humidity;BME280_pressure;Samples;Min_cycle;Max_cycle;Signal;HPM_P1;HPM_P2
2023/07/23 00:00:40;;;;;;;4.38;2.15;;;;;;;15.87;69.66;97025.06;5061721;28;20577;-58
2023/07/23 00:03:07;;;;;;;5.07;2.10;;;;;;;15.96;69.11;97011.63;5061354;28;20571;-58
2023/07/23 00:05:34;;;;;;;5.10;2.15;;;;;;;16.01;69.09;97010.72;5063735;28;20119;-58
2023/07/23 00:08:01;;;;;;;4.35;2.00;;;;;;;16.12;68.36;97020.38;5062055;28;20041;-59
2023/07/23 00:10:27;;;;;;;4.30;2.13;;;;;;;16.18;67.95;97015.66;5062821;28;20037;-58
2023/07/23 00:12:53;;;;;;;5.40;2.28;;;;;;;16.19;67.34;97018.09;5062021;28;20071;-58
2023/07/23 00:15:20;;;;;;;5.72;2.00;;;;;;;16.20;67.90;97016.97;5065736;28;20071;-58
2023/07/23 00:17:47;;;;;;;4.82;2.38;;;;;;;16.11;67.93;97022.28;5066629;28;20040;-58
2023/07/23 00:20:15;;;;;;;4.43;2.00;;;;;;;16.18;67.43;97013.72;5067361;28;20040;-57
2023/07/23 00:22:42;;;;;;;4.32;2.10;;;;;;;16.21;67.36;97021.31;5064781;28;20139;-57
2023/07/23 00:25:09;;;;;;;3.45;1.70;;;;;;;16.28;66.95;97011.94;5063872;28;20040;-58
2023/07/23 00:27:35;;;;;;;4.13;1.95;;;;;;;16.28;66.89;97017.41;5065316;28;20044;-58
2023/07/23 00:30:03;;;;;;;4.07;1.92;;;;;;;16.23;66.93;97021.03;5066058;28;20035;-56
2023/07/23 00:32:32;;;;;;;3.50;1.75;;;;;;;16.18;67.17;97023.84;5064078;28;20050;-59
2023/07/23 00:34:58;;;;;;;4.20;2.20;;;;;;;16.19;67.33;97023.56;5066585;28;20033;-58
2023/07/23 00:37:27;;;;;;;3.72;1.85;;;;;;;16.11;67.80;97013.31;5062881;28;20114;-57
2023/07/23 00:39:55;;;;;;;4.57;1.90;;;;;;;16.03;68.37;97012.03;5046004;28;20028;-57
2023/07/23 00:42:22;;;;;;;4.60;2.10;;;;;;;16.01;68.17;97017.00;5065129;28;20039;-58
2023/07/23 00:44:49;;;;;;;3.45;1.67;;;;;;;15.96;68.65;97014.34;5065416;28;20045;-57
2023/07/23 00:47:16;;;;;;;4.82;2.15;;;;;;;15.95;68.81;97013.53;5065836;28;20051;-57
2023/07/23 00:49:44;;;;;;;4.05;2.17;;;;;;;15.95;68.62;97015.44;5064856;28;20036;-58
2023/07/23 00:52:11;;;;;;;5.55;1.80;;;;;;;15.89;68.70;97013.88;5065176;28;20083;-58
2023/07/23 00:54:38;;;;;;;3.83;2.22;;;;;;;15.82;69.16;97012.31;5063665;28;20047;-59
2023/07/23 00:57:06;;;;;;;6.07;1.98;;;;;;;15.81;69.37;97009.91;5066366;28;20162;-58
2023/07/23 00:59:33;;;;;;;4.93;2.33;;;;;;;15.83;69.22;97011.22;5064269;28;20131;-58
2023/07/23 01:01:59;;;;;;;3.78;2.00;;;;;;;15.78;69.14;97007.75;5065322;28;20041;-58
2023/07/23 01:04:26;;;;;;;4.22;2.20;;;;;;;15.76;69.37;97004.47;5063242;28;20149;-58
2023/07/23 01:06:56;;;;;;;3.80;1.92;;;;;;;15.68;69.93;97000.50;5065662;28;20049;-58
2023/07/23 01:09:24;;;;;;;4.40;2.20;;;;;;;15.62;70.08;97002.50;5065670;28;20536;-59
2023/07/23 01:11:52;;;;;;;4.22;1.90;;;;;;;15.63;70.16;97004.13;5060531;28;20048;-58
2023/07/23 01:14:19;;;;;;;4.53;1.98;;;;;;;15.65;70.38;96993.72;5063907;28;20044;-59
2023/07/23 01:16:45;;;;;;;4.85;2.28;;;;;;;15.53;70.98;96996.06;5065394;28;20036;-57
2023/07/23 01:19:12;;;;;;;4.05;2.20;;;;;;;15.58;70.46;96996.00;5054772;28;20036;-59
2023/07/23 01:21:39;;;;;;;3.95;2.20;;;;;;;15.41;71.75;96993.78;5062087;28;20439;-59
2023/07/23 01:24:06;;;;;;;3.70;1.98;;;;;;;15.14;74.05;96985.09;5064287;28;20514;-56
2023/07/23 01:26:32;;;;;;;5.78;2.17;;;;;;;14.97;73.93;96988.31;5063474;28;20040;-57
2023/07/23 01:28:59;;;;;;;3.42;2.05;;;;;;;14.85;74.92;96987.91;5064786;28;20038;-58
2023/07/23 01:31:26;;;;;;;3.60;1.90;;;;;;;14.89;74.41;96980.78;5063667;28;20649;-58
2023/07/23 01:33:55;;;;;;;5.93;1.92;;;;;;;14.78;76.08;96974.63;5063062;28;20048;-58
2023/07/23 01:36:21;;;;;;;4.85;2.08;;;;;;;14.61;76.59;96981.31;5063984;28;20036;-58
2023/07/23 01:38:48;;;;;;;4.55;2.22;;;;;;;14.57;77.09;96980.25;5064829;28;20041;-58
2023/07/23 01:41:15;;;;;;;3.25;1.60;;;;;;;14.56;76.90;96973.97;5064853;28;20036;-58
2023/07/23 01:43:42;;;;;;;3.67;2.20;;;;;;;14.57;76.90;96977.53;5063644;28;20640;-57
2023/07/23 01:46:08;;;;;;;3.90;2.10;;;;;;;14.64;76.39;96967.09;5063624;28;20036;-56
2023/07/23 01:48:35;;;;;;;5.30;1.85;;;;;;;14.59;77.17;96975.31;5063205;28;20041;-57
2023/07/23 01:51:01;;;;;;;3.92;2.10;;;;;;;14.57;77.05;96970.16;5064944;28;20063;-58
2023/07/23 01:53:28;;;;;;;4.15;1.70;;;;;;;14.37;78.39;96960.28;5062492;28;20043;-57
2023/07/23 01:55:58;;;;;;;3.58;2.05;;;;;;;14.28;79.43;96962.00;5060691;28;20704;-56
2023/07/23 01:58:25;;;;;;;3.70;2.03;;;;;;;14.15;79.61;96963.44;5060194;28;20131;-58
2023/07/23 02:01:00;;;;;;;4.00;2.08;;;;;;;14.20;79.42;96960.72;5062857;28;20220;-59
2023/07/23 02:03:27;;;;;;;5.65;2.60;;;;;;;14.24;79.37;96960.94;5061468;28;20768;-57
2023/07/23 02:06:01;;;;;;;5.15;2.30;;;;;;;14.18;79.91;96965.63;5065081;28;20048;-58
2023/07/23 02:08:28;;;;;;;4.43;2.25;;;;;;;13.97;81.42;96964.97;5062271;28;20059;-58
2023/07/23 02:11:01;;;;;;;4.43;1.90;;;;;;;14.07;80.84;96969.53;5062853;28;20040;-59
2023/07/23 02:13:29;;;;;;;5.18;2.50;;;;;;;14.11;80.52;96968.66;5061466;28;20082;-57
2023/07/23 02:15:55;;;;;;;4.10;2.40;;;;;;;13.99;81.48;96965.50;5064087;28;20044;-58
2023/07/23 02:18:22;;;;;;;5.53;2.30;;;;;;;13.83;83.21;96967.53;5060127;28;20041;-59
2023/07/23 02:20:49;;;;;;;5.13;1.83;;;;;;;13.88;82.79;96965.59;5063111;28;20483;-58
2023/07/23 02:23:16;;;;;;;4.50;2.22;;;;;;;13.87;82.24;96960.44;5061871;28;20051;-57
2023/07/23 02:25:43;;;;;;;5.32;2.25;;;;;;;13.73;83.53;96966.50;5063117;28;20037;-57
2023/07/23 02:28:10;;;;;;;4.50;2.30;;;;;;;13.88;82.68;96967.47;5065488;28;20036;-58
2023/07/23 02:30:37;;;;;;;5.32;1.83;;;;;;;13.89;82.27;96969.94;5065930;28;20138;-58
2023/07/23 02:33:04;;;;;;;5.07;2.47;;;;;;;13.94;81.95;96962.81;5075919;28;20037;-58
2023/07/23 02:35:36;;;;;;;4.28;1.90;;;;;;;13.92;82.84;96963.09;5060821;28;20166;-58
2023/07/23 02:38:03;;;;;;;4.90;1.90;;;;;;;13.80;83.42;96968.91;5063485;28;20040;-56
2023/07/23 02:40:32;;;;;;;4.20;1.90;;;;;;;13.74;83.67;96967.31;5063535;28;20075;-57
2023/07/23 02:42:59;;;;;;;5.90;1.95;;;;;;;13.57;85.83;96970.41;5060079;28;20042;-56
2023/07/23 02:45:26;;;;;;;3.83;2.00;;;;;;;13.78;84.40;96974.63;5061119;28;20048;-58
2023/07/23 02:47:52;;;;;;;4.88;1.80;;;;;;;13.62;84.63;96965.78;5062269;28;20585;-57
2023/07/23 02:50:19;;;;;;;5.00;2.00;;;;;;;13.70;84.74;96977.13;5058908;28;20044;-57
2023/07/23 02:52:45;;;;;;;4.50;2.22;;;;;;;13.67;84.14;96972.28;5059091;28;20190;-58
2023/07/23 02:55:12;;;;;;;4.38;2.00;;;;;;;13.59;84.77;96971.75;5062423;28;20042;-58
2023/07/23 02:57:38;;;;;;;3.95;2.20;;;;;;;13.61;84.14;96975.03;5061702;28;20071;-59
2023/07/23 03:00:06;;;;;;;4.28;2.28;;;;;;;13.60;84.70;96978.03;5061721;28;20048;-58
2023/07/23 03:02:32;;;;;;;4.38;2.10;;;;;;;13.38;86.39;96971.84;5061006;28;20653;-58
2023/07/23 03:04:59;;;;;;;3.65;1.92;;;;;;;13.33;87.17;96973.78;5061120;28;20044;-57
2023/07/23 03:07:26;;;;;;;4.22;2.03;;;;;;;13.42;86.35;96977.56;5061671;28;20060;-58
2023/07/23 03:09:52;;;;;;;4.75;2.45;;;;;;;13.47;85.06;96973.97;5062887;28;20047;-58
2023/07/23 03:12:19;;;;;;;4.30;2.08;;;;;;;13.29;87.35;96978.97;5061354;28;20059;-58
2023/07/23 03:14:46;;;;;;;4.13;2.33;;;;;;;13.29;87.68;96980.88;5060978;28;20496;-58
2023/07/23 03:17:13;;;;;;;5.88;1.95;;;;;;;13.32;86.94;96974.88;5063009;28;20060;-56
2023/07/23 03:19:40;;;;;;;3.83;2.05;;;;;;;13.27;87.22;96983.88;5057118;28;20125;-58
2023/07/23 03:22:08;;;;;;;3.53;1.90;;;;;;;13.23;87.46;96982.81;5061739;28;20084;-58
2023/07/23 03:24:35;;;;;;;4.28;2.10;;;;;;;13.12;88.79;96979.34;5062191;28;20044;-58
2023/07/23 03:27:01;;;;;;;5.53;2.30;;;;;;;12.94;90.23;96981.53;5061734;28;20079;-58
2023/07/23 03:29:28;;;;;;;4.32;2.30;;;;;;;12.85;90.28;96984.03;5060390;28;20037;-57
2023/07/23 03:31:55;;;;;;;4.60;2.22;;;;;;;12.88;90.11;96980.78;5062127;28;20068;-58
2023/07/23 03:34:21;;;;;;;3.92;2.35;;;;;;;12.98;89.64;96982.63;5061761;28;20098;-58
2023/07/23 03:36:48;;;;;;;4.50;2.33;;;;;;;13.01;89.22;96986.69;5063033;28;20052;-59
2023/07/23 03:39:18;;;;;;;5.72;2.25;;;;;;;13.02;89.70;96982.91;5061182;28;20047;-58
2023/07/23 03:41:45;;;;;;;5.63;2.35;;;;;;;13.07;88.95;96982.03;5058969;28;20157;-58
2023/07/23 03:44:12;;;;;;;4.15;2.35;;;;;;;13.03;88.95;96979.06;5059646;28;20045;-58
2023/07/23 03:46:44;;;;;;;5.88;2.40;;;;;;;13.08;88.69;96984.50;5056609;28;20668;-57
2023/07/23 03:49:11;;;;;;;4.68;2.03;;;;;;;12.94;89.31;96986.19;5059506;28;20498;-57
2023/07/23 03:51:38;;;;;;;4.53;2.65;;;;;;;12.74;90.59;96988.69;5060245;28;20036;-56
2023/07/23 03:54:04;;;;;;;4.32;2.00;;;;;;;12.86;90.20;96991.09;5057129;28;20054;-58
2023/07/23 03:56:31;;;;;;;4.00;2.17;;;;;;;13.00;89.22;96993.22;5060808;28;20549;-58
2023/07/23 03:58:58;;;;;;;3.95;2.10;;;;;;;13.24;87.75;96982.50;5062220;28;20519;-56
2023/07/23 04:01:24;;;;;;;4.40;2.10;;;;;;;13.42;86.31;96985.72;5058804;28;20676;-58
2023/07/23 04:03:51;;;;;;;4.53;2.03;;;;;;;13.40;86.83;96985.16;5058695;28;20047;-58
2023/07/23 04:06:17;;;;;;;3.97;2.38;;;;;;;13.30;87.34;96988.75;5060941;28;20044;-58
2023/07/23 04:08:44;;;;;;;5.35;1.95;;;;;;;13.32;86.77;96985.75;5062141;28;20043;-57
2023/07/23 04:11:10;;;;;;;4.40;1.98;;;;;;;13.46;86.08;96989.50;5062264;28;20041;-57
2023/07/23 04:13:37;;;;;;;4.63;2.40;;;;;;;13.50;85.45;96982.41;5060206;28;20041;-58
2023/07/23 04:16:11;;;;;;;4.97;2.05;;;;;;;13.50;86.16;96982.41;5060630;28;20520;-57
2023/07/23 04:18:53;;;;;;;4.70;2.42;;;;;;;13.61;85.36;96988.63;5061212;28;20572;-57
2023/07/23 04:21:21;;;;;;;3.22;1.80;;;;;;;13.70;84.82;96988.84;5061164;28;20032;-58
2023/07/23 04:23:49;;;;;;;4.53;2.10;;;;;;;13.91;83.46;96989.53;5060409;28;20197;-57
2023/07/23 04:26:17;;;;;;;7.97;1.80;;;;;;;13.95;83.56;96988.94;5060543;28;20579;-58
2023/07/23 04:28:45;;;;;;;3.85;1.92;;;;;;;14.25;81.33;96989.78;5060595;28;20041;-57
2023/07/23 04:31:12;;;;;;;5.28;2.75;;;;;;;14.30;81.62;96997.94;5061606;28;20448;-56
2023/07/23 04:33:38;;;;;;;3.42;1.70;;;;;;;14.46;80.71;96998.59;5061585;28;20048;-57
2023/07/23 04:36:07;;;;;;;5.43;2.05;;;;;;;14.55;80.75;96998.78;5061819;28;20041;-58
2023/07/23 04:38:35;;;;;;;5.03;1.80;;;;;;;14.61;80.27;97002.28;5061288;28;20554;-58
2023/07/23 04:41:02;;;;;;;4.30;2.00;;;;;;;14.70;79.29;97003.25;5062058;28;20037;-58
2023/07/23 04:43:29;;;;;;;3.78;2.10;;;;;;;14.77;78.97;96995.59;5059652;28;20121;-57
2023/07/23 04:45:55;;;;;;;3.72;1.83;;;;;;;14.82;78.63;97001.00;5061686;28;20040;-57
2023/07/23 04:48:22;;;;;;;6.35;2.03;;;;;;;14.92;78.45;97000.06;5061061;28;20052;-58
2023/07/23 04:50:58;;;;;;;4.28;2.00;;;;;;;15.00;78.05;96992.38;5060904;28;20040;-59
2023/07/23 04:53:24;;;;;;;4.97;1.88;;;;;;;15.16;77.47;96993.00;5059122;28;20040;-58
2023/07/23 04:55:55;;;;;;;3.80;2.05;;;;;;;15.44;76.13;96998.66;5059601;28;20040;-58
2023/07/23 04:58:23;;;;;;;6.85;2.15;;;;;;;15.65;74.95;96996.44;5061746;28;20048;-58
2023/07/23 05:00:50;;;;;;;3.90;1.85;;;;;;;15.81;75.39;97004.44;5062098;28;20058;-58
2023/07/23 05:03:16;;;;;;;4.05;2.10;;;;;;;15.91;74.68;97006.19;5061346;28;20044;-58
2023/07/23 05:05:51;;;;;;;6.85;2.15;;;;;;;15.96;74.59;97006.94;5061882;28;20045;-58
2023/07/23 05:08:19;;;;;;;4.93;2.00;;;;;;;16.10;73.69;97008.91;5065022;28;20052;-58
2023/07/23 05:10:46;;;;;;;3.78;1.85;;;;;;;16.31;71.54;97001.22;5063729;28;20040;-58
2023/07/23 05:13:14;;;;;;;4.28;2.05;;;;;;;16.48;70.85;97003.38;5062994;28;20053;-57
2023/07/23 05:15:41;;;;;;;5.63;2.22;;;;;;;16.67;68.99;97005.25;5061979;28;20155;-58
2023/07/23 05:18:08;;;;;;;5.22;1.60;;;;;;;16.81;69.47;97004.47;5062695;28;20090;-58
2023/07/23 05:20:35;;;;;;;4.45;2.00;;;;;;;16.87;69.34;96997.78;5062496;28;20137;-59
2023/07/23 05:23:01;;;;;;;5.40;1.80;;;;;;;17.02;67.71;96999.41;5063706;28;20055;-58
2023/07/23 05:25:28;;;;;;;4.32;1.80;;;;;;;17.18;66.78;96999.97;5060899;28;20044;-58
2023/07/23 05:27:54;;;;;;;4.10;1.60;;;;;;;17.25;67.13;96997.63;5062946;28;20048;-59
2023/07/23 05:30:21;;;;;;;7.38;2.28;;;;;;;17.31;67.04;96992.06;5062538;28;20041;-58
2023/07/23 05:32:48;;;;;;;4.07;1.83;;;;;;;17.37;67.12;96997.13;5061129;28;20045;-59
2023/07/23 05:35:15;;;;;;;3.78;1.75;;;;;;;17.51;66.37;96993.56;5062344;28;20612;-57
2023/07/23 05:37:42;;;;;;;5.25;1.80;;;;;;;17.73;65.39;96992.78;5062742;28;20072;-58
2023/07/23 05:40:08;;;;;;;4.30;1.90;;;;;;;17.90;64.90;96997.59;5060368;28;20056;-58
2023/07/23 05:42:35;;;;;;;3.72;1.85;;;;;;;18.00;64.12;97004.78;5062445;28;20043;-57
2023/07/23 05:45:03;;;;;;;4.32;1.65;;;;;;;18.18;63.23;97002.19;5063040;28;20068;-57
2023/07/23 05:47:30;;;;;;;4.22;1.80;;;;;;;18.33;62.88;97001.81;5062250;28;20044;-57
2023/07/23 05:49:56;;;;;;;4.18;1.77;;;;;;;18.54;62.00;96998.56;5060570;28;20045;-55
2023/07/23 05:52:24;;;;;;;4.18;1.67;;;;;;;18.68;61.30;96994.91;5063197;28;20051;-56
2023/07/23 05:54:50;;;;;;;4.07;1.70;;;;;;;18.85;60.27;97002.44;5062553;28;20040;-56
2023/07/23 05:57:17;;;;;;;3.90;1.65;;;;;;;18.95;60.22;97004.88;5063075;28;20060;-56
2023/07/23 05:59:44;;;;;;;3.90;1.85;;;;;;;19.05;58.87;96997.53;5062702;28;20056;-57
2023/07/23 06:02:10;;;;;;;3.35;1.70;;;;;;;19.08;59.08;97003.22;5061778;28;20087;-57
2023/07/23 06:04:39;;;;;;;4.03;1.92;;;;;;;19.20;59.04;97002.59;5061666;28;20049;-58
2023/07/23 06:07:05;;;;;;;3.08;1.55;;;;;;;19.29;58.57;96999.88;5063043;28;20044;-58
2023/07/23 06:09:32;;;;;;;4.35;2.13;;;;;;;19.37;58.37;96998.28;5061186;28;20146;-58
2023/07/23 06:11:59;;;;;;;4.10;1.95;;;;;;;19.40;58.47;97002.31;5062991;28;20036;-58
2023/07/23 06:14:25;;;;;;;6.93;1.98;;;;;;;19.47;58.32;96999.94;5061555;28;20044;-57
2023/07/23 06:16:52;;;;;;;3.90;1.75;;;;;;;19.57;58.21;97007.84;5063536;28;20051;-58
2023/07/23 06:19:18;;;;;;;4.05;2.03;;;;;;;19.68;56.70;97004.81;5062681;28;20149;-58
2023/07/23 06:21:45;;;;;;;3.92;1.70;;;;;;;19.84;56.56;97007.91;5061782;28;20036;-57
2023/07/23 06:24:12;;;;;;;3.28;1.70;;;;;;;19.83;58.14;97015.31;5062139;28;20067;-57
2023/07/23 06:26:38;;;;;;;5.10;1.88;;;;;;;19.82;58.03;97007.38;5061917;28;20063;-58
2023/07/23 06:29:05;;;;;;;4.00;2.00;;;;;;;19.89;56.33;97014.03;5060767;28;20408;-57
2023/07/23 06:31:32;;;;;;;3.88;1.80;;;;;;;20.00;55.17;97014.56;5059802;28;20487;-57
2023/07/23 06:33:58;;;;;;;4.20;1.98;;;;;;;20.03;54.87;97010.34;5061656;28;20059;-58
2023/07/23 06:36:25;;;;;;;4.53;2.05;;;;;;;20.18;53.91;97005.50;5061890;28;20040;-58
2023/07/23 06:38:51;;;;;;;5.63;2.60;;;;;;;20.27;54.10;97014.56;5060974;28;20488;-58
2023/07/23 06:41:18;;;;;;;4.82;2.80;;;;;;;20.32;53.84;97014.41;5061904;28;20047;-58
2023/07/23 06:43:49;;;;;;;;;;;;;;;20.52;53.12;97017.59;5060401;28;20047;-56
2023/07/23 06:46:19;;;;;;;3.28;1.80;;;;;;;20.60;52.37;97019.50;5061882;28;19950;-57
2023/07/23 06:48:47;;;;;;;5.43;1.60;;;;;;;20.61;52.77;97015.66;5061366;28;20036;-58
2023/07/23 06:51:14;;;;;;;4.35;1.90;;;;;;;20.75;51.41;97012.69;5061445;28;20074;-58
2023/07/23 06:53:42;;;;;;;3.70;1.55;;;;;;;20.81;52.11;97013.31;5059473;28;20076;-57
2023/07/23 06:56:09;;;;;;;3.80;1.90;;;;;;;20.82;51.31;97016.88;5060815;28;20049;-55
2023/07/23 06:58:37;;;;;;;5.30;1.85;;;;;;;20.82;51.78;97016.88;5060772;28;20056;-58
2023/07/23 07:01:05;;;;;;;4.40;2.08;;;;;;;20.78;50.61;97014.78;5061455;28;20117;-56
2023/07/23 07:03:32;;;;;;;6.55;2.30;;;;;;;20.81;51.22;97010.56;5060986;28;20186;-58
2023/07/23 07:05:59;;;;;;;4.35;1.98;;;;;;;20.92;51.07;97011.03;5061304;28;20052;-58
2023/07/23 07:08:27;;;;;;;5.28;1.85;;;;;;;21.02;50.63;97013.44;5061095;28;20040;-58
2023/07/23 07:11:01;;;;;;;3.58;1.92;;;;;;;21.31;51.12;97002.78;5061450;28;20868;-58
2023/07/23 07:13:30;;;;;;;3.58;2.10;;;;;;;21.57;50.20;97001.81;5060447;28;20076;-58
2023/07/23 07:15:56;;;;;;;3.95;1.85;;;;;;;21.69;49.12;96998.34;5061153;28;20400;-58
2023/07/23 07:18:25;;;;;;;8.40;2.15;;;;;;;21.87;48.63;97006.50;5062646;28;20097;-58
2023/07/23 07:20:58;;;;;;;4.35;1.90;;;;;;;21.85;49.18;97001.31;5062955;28;20037;-58
2023/07/23 07:23:29;;;;;;;5.50;1.98;;;;;;;21.90;48.93;97001.16;5063280;28;20048;-57
2023/07/23 07:25:57;;;;;;;11.40;2.45;;;;;;;22.01;48.63;97009.00;5061169;28;20040;-58
2023/07/23 07:28:25;;;;;;;5.78;1.80;;;;;;;21.70;48.85;96991.69;5059563;28;20048;-58
2023/07/23 07:30:57;;;;;;;4.25;1.67;;;;;;;21.83;48.47;96996.16;5060849;28;20052;-58
2023/07/23 07:33:23;;;;;;;4.13;1.77;;;;;;;21.88;48.50;96997.91;5060534;28;20048;-57
2023/07/23 07:35:53;;;;;;;3.30;1.58;;;;;;;22.12;48.38;96993.69;5059462;28;20503;-58
2023/07/23 07:38:20;;;;;;;3.83;2.00;;;;;;;22.07;47.11;97000.19;5060749;28;20054;-57
2023/07/23 07:40:48;;;;;;;5.68;2.10;;;;;;;22.26;48.21;96998.09;5061256;28;20044;-57
2023/07/23 07:43:15;;;;;;;3.35;1.85;;;;;;;22.26;47.60;96995.34;5060781;28;20040;-58
2023/07/23 07:45:41;;;;;;;4.35;1.60;;;;;;;22.39;46.57;97004.44;5059874;28;20664;-56
2023/07/23 07:48:09;;;;;;;4.68;1.80;;;;;;;22.24;46.69;96992.91;5062064;28;20131;-58
2023/07/23 07:50:35;;;;;;;4.07;1.65;;;;;;;22.18;47.20;96999.75;5059166;28;20467;-57
2023/07/23 07:53:02;;;;;;;3.20;1.38;;;;;;;22.15;46.76;96998.50;5060956;28;20044;-58
2023/07/23 07:55:28;;;;;;;4.05;1.60;;;;;;;22.30;47.15;97005.34;5059586;28;20224;-57
2023/07/23 07:57:55;;;;;;;3.70;1.38;;;;;;;22.36;47.13;97008.69;5062506;28;20052;-58
2023/07/23 08:00:22;;;;;;;3.33;1.70;;;;;;;22.35;46.22;96996.06;5060891;28;20037;-58
2023/07/23 08:02:48;;;;;;;3.33;1.60;;;;;;;22.44;46.78;97001.50;5061374;28;20462;-58
2023/07/23 08:05:15;;;;;;;2.78;1.40;;;;;;;22.39;45.88;97005.25;5062266;28;20125;-58
2023/07/23 08:07:43;;;;;;;2.60;1.30;;;;;;;22.28;46.29;97018.66;5060605;28;20037;-58
2023/07/23 08:10:10;;;;;;;3.10;1.30;;;;;;;22.28;47.15;97015.91;5062307;28;20040;-58
2023/07/23 08:12:38;;;;;;;2.20;1.02;;;;;;;22.25;46.44;97018.56;5061791;28;20032;-58
2023/07/23 08:15:05;;;;;;;2.65;1.30;;;;;;;22.20;46.76;97009.34;5062050;28;20067;-58
2023/07/23 08:17:34;;;;;;;2.53;1.48;;;;;;;22.26;46.32;97007.16;5062002;28;20542;-56
2023/07/23 08:20:03;;;;;;;4.75;1.45;;;;;;;22.22;47.24;97008.97;5059701;28;20041;-58
2023/07/23 08:22:30;;;;;;;3.25;1.25;;;;;;;22.03;48.04;97007.53;5058557;28;20047;-58
2023/07/23 08:24:56;;;;;;;2.60;1.45;;;;;;;;;;5059686;28;20102;-58
2023/07/23 08:27:25;;;;;;;3.20;1.17;;;;;;;22.27;47.58;97019.00;5060047;28;20055;-58
2023/07/23 08:29:51;;;;;;;2.53;1.30;;;;;;;22.25;47.62;97013.81;5058975;28;20504;-57
2023/07/23 08:32:19;;;;;;;3.28;1.10;;;;;;;22.41;47.50;97011.22;5061073;28;20045;-54
2023/07/23 08:34:46;;;;;;;2.72;1.23;;;;;;;22.50;46.67;97011.16;5063269;28;20041;-58
2023/07/23 08:37:13;;;;;;;2.05;1.08;;;;;;;22.48;47.55;97007.91;5064333;28;20587;-58
2023/07/23 08:39:40;;;;;;;2.03;1.00;;;;;;;22.70;46.33;97009.53;5062462;28;20044;-57
2023/07/23 08:42:35;;;;;;;2.88;1.23;;;;;;;22.52;47.41;97005.31;5063055;28;20044;-56
2023/07/23 08:45:40;;;;;;;2.70;1.17;;;;;;;22.65;46.69;97006.16;5062133;28;20044;-56
2023/07/23 08:48:14;;;;;;;2.78;1.48;;;;;;;22.79;46.93;97005.84;5064576;28;20119;-56
2023/07/23 08:50:46;;;;;;;2.33;0.98;;;;;;;22.94;45.79;97005.22;5062055;28;20040;-57
2023/07/23 08:53:14;;;;;;;2.78;1.30;;;;;;;22.67;45.35;97017.69;5060536;28;20037;-58
2023/07/23 08:55:50;;;;;;;2.85;1.30;;;;;;;22.72;45.58;97015.53;5063761;28;20041;-55
2023/07/23 08:58:18;;;;;;;3.35;1.30;;;;;;;22.53;46.62;97013.25;5065021;28;20499;-54
2023/07/23 09:00:46;;;;;;;2.50;1.30;;;;;;;22.61;46.05;97017.09;5065199;28;20049;-55
2023/07/23 09:03:17;;;;;;;3.80;1.30;;;;;;;22.58;46.51;97010.31;5066026;28;20082;-59
2023/07/23 09:05:44;;;;;;;2.10;1.20;;;;;;;22.82;45.88;97003.22;5064304;28;20045;-58
2023/07/23 09:08:10;;;;;;;3.10;1.52;;;;;;;22.69;46.80;97005.16;5063927;28;20036;-55
2023/07/23 09:10:38;;;;;;;2.97;1.48;;;;;;;22.73;45.85;97008.84;5065134;28;20518;-57
2023/07/23 09:13:15;;;;;;;1.77;0.90;;;;;;;22.75;46.08;97008.50;5066191;28;20044;-58
2023/07/23 09:15:52;;;;;;;3.80;1.00;;;;;;;22.84;46.75;97005.63;5063397;28;20043;-58
2023/07/23 09:18:21;;;;;;;2.33;1.05;;;;;;;22.65;47.08;97006.16;5065818;28;20124;-58
2023/07/23 09:20:51;;;;;;;2.70;1.17;;;;;;;22.41;47.41;97004.94;5064549;28;20649;-57
2023/07/23 09:23:17;;;;;;;2.50;1.20;;;;;;;22.66;46.18;97000.31;5064998;28;20514;-58
2023/07/23 09:25:44;;;;;;;3.42;1.58;;;;;;;22.53;46.80;96995.88;5064644;28;21395;-56
2023/07/23 09:28:24;;;;;;;3.58;1.30;;;;;;;22.80;46.59;96997.25;5065162;28;20630;-57
2023/07/23 09:30:55;;;;;;;4.65;1.50;;;;;;;22.30;46.57;96993.53;5063345;28;20049;-58
2023/07/23 09:33:29;;;;;;;3.60;1.70;;;;;;;22.50;47.23;96997.38;5065516;28;20040;-57
2023/07/23 09:35:59;;;;;;;6.72;2.35;;;;;;;22.83;46.82;96998.50;5063876;28;20067;-58
2023/07/23 09:38:28;;;;;;;5.28;1.40;;;;;;;23.13;46.14;96995.56;5063279;28;20040;-58
2023/07/23 09:40:55;;;;;;;2.90;1.45;;;;;;;23.20;44.96;96997.75;5062761;28;20037;-58
2023/07/23 09:43:22;;;;;;;3.28;1.30;;;;;;;23.41;45.62;97003.19;5061992;28;20048;-57
2023/07/23 09:45:50;;;;;;;2.40;1.42;;;;;;;23.34;44.52;97000.19;5060639;28;20041;-58
2023/07/23 09:48:18;;;;;;;3.60;1.42;;;;;;;23.46;45.13;97000.19;5061371;28;20044;-56
2023/07/23 09:50:44;;;;;;;2.78;1.35;;;;;;;23.30;44.38;96993.72;5062259;28;20051;-57
2023/07/23 09:53:15;;;;;;;3.10;1.58;;;;;;;23.30;45.33;97008.34;5062549;28;20572;-57
2023/07/23 09:55:43;;;;;;;4.85;1.98;;;;;;;23.03;45.80;96996.81;5060032;28;20048;-56
2023/07/23 09:58:11;;;;;;;3.92;1.38;;;;;;;23.10;45.28;96987.94;5062869;28;20762;-55
2023/07/23 10:00:39;;;;;;;3.47;1.48;;;;;;;22.99;45.82;96990.34;5061587;28;20117;-56
2023/07/23 10:03:06;;;;;;;3.03;1.30;;;;;;;23.18;45.41;96983.47;5063037;28;20040;-56
2023/07/23 10:05:35;;;;;;;3.35;1.60;;;;;;;23.59;45.59;96987.16;5061269;28;20043;-55
2023/07/23 10:08:03;;;;;;;3.35;1.30;;;;;;;23.88;44.26;96971.44;5062123;28;20047;-58
2023/07/23 10:10:30;;;;;;;2.92;1.40;;;;;;;24.02;44.42;96976.56;5061548;28;20102;-58
2023/07/23 10:12:57;;;;;;;3.83;2.05;;;;;;;24.18;43.69;96997.19;5062702;28;20563;-56
2023/07/23 10:15:23;;;;;;;3.97;1.60;;;;;;;23.52;43.84;96975.91;5061996;28;20314;-58
2023/07/23 10:17:59;;;;;;;3.90;1.60;;;;;;;23.61;44.87;96973.81;5062205;28;20036;-56
2023/07/23 10:20:31;;;;;;;2.95;1.40;;;;;;;23.85;44.53;96977.66;5062048;28;20056;-58
2023/07/23 10:22:58;;;;;;;3.72;1.67;;;;;;;23.88;45.15;96962.34;5059400;28;20042;-60
2023/07/23 10:25:30;;;;;;;3.85;1.30;;;;;;;24.12;44.42;96974.50;5061238;28;20330;-59
2023/07/23 10:28:09;;;;;;;3.65;1.60;;;;;;;24.32;44.43;96966.34;5062386;28;20048;-57
2023/07/23 10:30:36;;;;;;;3.17;1.33;;;;;;;24.45;43.50;96961.53;5060640;28;20036;-59
2023/07/23 10:33:10;;;;;;;5.00;1.65;;;;;;;24.70;42.70;96962.22;5061857;28;20040;-58
2023/07/23 10:35:52;;;;;;;3.90;1.85;;;;;;;24.37;42.46;96957.78;5058923;28;20044;-56
2023/07/23 10:38:30;;;;;;;2.55;1.45;;;;;;;24.61;42.20;96956.84;5058567;28;20049;-57
2023/07/23 10:40:58;;;;;;;3.45;1.40;;;;;;;24.48;42.37;96967.19;5059990;28;21552;-57
2023/07/23 10:43:37;;;;;;;2.70;1.42;;;;;;;24.19;42.66;96960.06;5059979;28;20054;-56
2023/07/23 10:46:05;;;;;;;3.47;1.73;;;;;;;23.69;43.85;96949.94;5058624;28;20060;-56
2023/07/23 10:48:42;;;;;;;3.33;1.60;;;;;;;23.98;43.43;96944.44;5062114;28;20119;-55
2023/07/23 10:51:13;;;;;;;4.10;1.60;;;;;;;24.21;43.91;96941.94;5057168;28;20032;-57
2023/07/23 10:53:53;;;;;;;2.83;1.50;;;;;;;24.36;43.28;96932.06;5060066;28;20052;-57
2023/07/23 10:56:24;;;;;;;3.47;1.83;;;;;;;24.86;41.85;96926.25;5058089;28;20043;-58
2023/07/23 10:58:54;;;;;;;4.55;1.60;;;;;;;25.06;42.02;96924.38;5060253;28;20048;-57
2023/07/23 11:01:22;;;;;;;5.55;1.80;;;;;;;25.43;42.32;96925.19;5059542;28;20123;-58
2023/07/23 11:03:53;;;;;;;3.53;1.63;;;;;;;25.43;40.60;96914.13;5059203;28;20040;-57
2023/07/23 11:06:28;;;;;;;3.17;1.70;;;;;;;25.67;38.96;96918.63;5060431;28;20476;-57
2023/07/23 11:08:57;;;;;;;5.50;2.35;;;;;;;25.88;37.64;96911.09;5059671;28;20494;-57
2023/07/23 11:11:30;;;;;;;9.40;2.13;;;;;;;26.07;36.20;96913.88;5060227;28;20033;-60
2023/07/23 11:13:57;;;;;;;4.53;2.00;;;;;;;26.22;35.45;96919.69;5059269;28;20495;-57
2023/07/23 11:16:24;;;;;;;3.58;1.63;;;;;;;26.58;35.86;96928.72;5060110;28;20040;-57
2023/07/23 11:18:51;;;;;;;3.30;1.70;;;;;;;26.85;34.97;96911.28;5060050;28;20041;-57
2023/07/23 11:21:18;;;;;;;4.25;1.58;;;;;;;26.88;34.95;96905.00;5060128;28;20050;-58
2023/07/23 11:23:44;;;;;;;3.53;1.88;;;;;;;26.80;35.09;96914.38;5058755;28;20055;-57
2023/07/23 11:26:13;;;;;;;3.70;1.80;;;;;;;26.91;34.98;96911.78;5060547;28;20048;-60
2023/07/23 11:28:40;;;;;;;3.42;1.90;;;;;;;26.57;35.71;96913.22;5056219;28;20044;-58
2023/07/23 11:31:06;;;;;;;7.38;2.03;;;;;;;26.69;35.61;96908.66;5059612;28;20048;-60
2023/07/23 11:33:33;;;;;;;3.33;1.63;;;;;;;26.92;34.93;96897.53;5058390;28;20074;-60
2023/07/23 11:36:00;;;;;;;3.10;1.92;;;;;;;27.00;35.19;96899.28;5059927;28;20048;-60
2023/07/23 11:38:31;;;;;;;3.55;1.67;;;;;;;26.87;35.08;96908.97;5059932;28;20048;-55